createdAt,value
2023-05-17T00:06:54.893Z,12.85
2023-05-17T00:13:56.964Z,12.65
2023-05-17T00:20:59.073Z,13.75
2023-05-17T00:28:00.990Z,11.65
2023-05-17T00:35:03.060Z,10.15
2023-05-17T00:42:05.336Z,7.53
2023-05-17T00:49:07.769Z,7.80
2023-05-17T00:56:09.831Z,8.15
2023-05-17T01:03:12.076Z,8.40
2023-05-17T01:10:14.140Z,8.60
2023-05-17T01:17:25.907Z,9.35
2023-05-17T01:24:46.302Z,9.15
2023-05-17T01:31:49.786Z,8.50
2023-05-17T01:38:51.984Z,9.60
2023-05-17T01:46:08.254Z,9.32
2023-05-17T01:53:14.291Z,10.00
2023-05-17T02:00:17.655Z,10.60
2023-05-17T02:07:19.623Z,10.20
2023-05-17T02:14:21.609Z,9.50
2023-05-17T02:21:23.510Z,10.68
2023-05-17T02:28:25.502Z,10.55
2023-05-17T02:35:27.670Z,9.52
2023-05-17T02:42:29.895Z,10.40
2023-05-17T02:49:31.955Z,10.50
2023-05-17T02:56:34.266Z,10.35
2023-05-17T03:03:36.533Z,10.77
2023-05-17T03:10:38.823Z,10.10
2023-05-17T03:17:41.149Z,9.45
2023-05-17T03:24:43.124Z,9.80
2023-05-17T03:31:45.319Z,10.38
2023-05-17T03:38:47.308Z,10.98
2023-05-17T03:45:49.237Z,11.05
2023-05-17T03:52:51.281Z,10.02
2023-05-17T03:59:53.304Z,10.07
2023-05-17T04:06:55.380Z,9.95
2023-05-17T04:13:57.982Z,8.98
2023-05-17T04:21:00.020Z,8.40
2023-05-17T04:28:01.989Z,8.05
2023-05-17T04:35:05.125Z,9.25
2023-05-17T04:42:07.137Z,8.85
2023-05-17T04:49:09.159Z,7.93
2023-05-17T04:56:11.389Z,8.23
2023-05-17T05:03:13.477Z,7.53
2023-05-17T05:10:15.496Z,8.05
2023-05-17T05:17:17.554Z,8.38
2023-05-17T05:24:19.615Z,8.10
2023-05-17T05:31:21.602Z,7.32
2023-05-17T05:38:23.575Z,7.00
2023-05-17T05:45:25.559Z,7.63
2023-05-17T05:52:27.576Z,7.22
2023-05-17T05:59:29.714Z,7.18
2023-05-17T06:06:31.892Z,6.88
2023-05-17T06:13:33.929Z,7.28
2023-05-17T06:20:36.022Z,6.63
2023-05-17T06:27:38.126Z,6.55
2023-05-17T06:34:40.353Z,6.55
2023-05-17T06:41:42.402Z,6.05
2023-05-17T06:48:44.441Z,6.25
2023-05-17T06:55:46.594Z,7.28
2023-05-17T07:02:48.941Z,6.90
2023-05-17T07:09:51.001Z,7.25
2023-05-17T07:16:52.975Z,6.75
2023-05-17T07:23:54.995Z,6.80
2023-05-17T07:30:56.942Z,6.13
2023-05-17T07:37:58.913Z,6.93
2023-05-17T07:45:01.020Z,7.07
2023-05-17T07:52:03.454Z,7.25
2023-05-17T07:59:05.404Z,7.97
2023-05-17T08:06:07.610Z,10.90
2023-05-17T08:13:09.684Z,10.23
2023-05-17T08:20:12.025Z,7.68
2023-05-17T08:27:14.051Z,6.82
2023-05-17T08:34:16.056Z,6.88
2023-05-17T08:41:18.242Z,6.28
2023-05-17T08:48:20.763Z,6.15
2023-05-17T08:55:25.804Z,6.30
2023-05-17T09:02:31.443Z,6.78
2023-05-17T09:09:34.254Z,6.93
2023-05-17T09:16:37.914Z,7.13
2023-05-17T09:23:40.760Z,6.88
2023-05-17T09:30:44.140Z,7.95
2023-05-17T09:37:47.697Z,7.05
2023-05-17T09:44:57.906Z,6.53
2023-05-17T09:51:59.913Z,6.97
2023-05-17T09:59:02.862Z,7.30
2023-05-17T10:06:13.369Z,6.88
2023-05-17T10:13:25.174Z,6.43
2023-05-17T10:20:28.332Z,7.10
2023-05-17T10:27:31.159Z,7.28
2023-05-17T10:34:35.235Z,7.63
2023-05-17T10:41:42.572Z,7.22
2023-05-17T10:48:44.943Z,8.13
2023-05-17T10:55:47.671Z,7.13
2023-05-17T11:02:51.028Z,9.73
2023-05-17T11:10:11.678Z,7.63
2023-05-17T11:17:18.306Z,6.70
2023-05-17T11:24:27.710Z,7.45
2023-05-17T11:38:34.637Z,5.10
2023-05-17T11:45:48.269Z,5.88
2023-05-17T11:52:54.506Z,5.18
2023-05-17T12:00:05.684Z,5.03
2023-05-17T12:07:11.777Z,4.10
2023-05-17T12:14:18.349Z,3.65
2023-05-17T12:21:21.662Z,4.72
2023-05-17T12:28:24.755Z,4.13
2023-05-17T12:35:28.433Z,4.47
2023-05-17T12:42:30.399Z,4.90
2023-05-17T12:49:38.237Z,4.70
2023-05-17T12:56:44.104Z,4.90
2023-05-17T13:03:51.436Z,4.50
2023-05-17T13:10:53.561Z,5.25
2023-05-17T13:17:55.585Z,4.55
2023-05-17T13:24:57.658Z,4.68
2023-05-17T13:31:59.799Z,5.10
2023-05-17T13:39:02.417Z,4.80
2023-05-17T13:46:04.338Z,5.57
2023-05-17T13:53:06.996Z,5.78
2023-05-17T14:00:09.616Z,5.60
2023-05-17T14:07:11.832Z,5.68
2023-05-17T14:14:14.122Z,5.47
2023-05-17T14:21:16.293Z,5.60
2023-05-17T14:28:18.396Z,6.18
2023-05-17T14:35:20.284Z,5.15
2023-05-17T14:42:22.231Z,5.78
2023-05-17T14:49:24.309Z,5.53
2023-05-17T14:56:26.711Z,6.22
2023-05-17T15:03:28.734Z,6.53
2023-05-17T15:10:32.049Z,6.53
2023-05-17T15:17:34.052Z,5.75
2023-05-17T15:24:37.479Z,5.88
2023-05-17T15:31:39.465Z,5.85
2023-05-17T15:38:41.505Z,5.95
2023-05-17T15:45:43.489Z,5.50
2023-05-17T15:52:47.613Z,6.78
2023-05-17T15:59:49.666Z,6.65
2023-05-17T16:06:51.708Z,6.00
2023-05-17T16:13:53.740Z,6.75
2023-05-17T16:21:00.151Z,6.47
2023-05-17T16:28:02.776Z,6.45
2023-05-17T16:35:05.309Z,5.78
2023-05-17T16:42:07.445Z,6.05
2023-05-17T16:49:09.454Z,6.25
2023-05-17T16:56:11.614Z,6.30
2023-05-17T17:03:13.809Z,5.63
2023-05-17T17:10:16.016Z,4.88
2023-05-17T17:17:18.082Z,4.35
2023-05-17T17:24:20.301Z,5.22
2023-05-17T17:31:22.270Z,4.72
2023-05-17T17:38:24.332Z,4.32
2023-05-17T17:45:26.570Z,4.30
2023-05-17T17:52:28.763Z,4.15
2023-05-17T17:59:30.922Z,4.38
2023-05-17T18:06:33.457Z,3.95
2023-05-17T18:13:35.850Z,4.13
2023-05-17T18:20:37.899Z,4.88
2023-05-17T18:27:41.909Z,4.07
2023-05-17T18:34:44.454Z,3.97
2023-05-17T18:41:46.913Z,4.38
2023-05-17T18:48:50.660Z,4.53
2023-05-17T18:55:52.812Z,4.38
2023-05-17T19:02:56.568Z,4.35
2023-05-17T19:09:58.820Z,3.92
2023-05-17T19:17:01.141Z,3.50
2023-05-17T19:24:03.769Z,3.83
2023-05-17T19:31:08.987Z,4.30
2023-05-17T19:38:11.678Z,3.90
2023-05-17T19:45:16.278Z,3.67
2023-05-17T19:52:18.845Z,3.30
2023-05-17T19:59:21.497Z,2.85
2023-05-17T20:06:24.144Z,3.38
2023-05-17T20:13:29.262Z,3.17
2023-05-17T20:20:32.816Z,3.00
2023-05-17T20:27:35.204Z,3.28
2023-05-17T20:34:37.238Z,3.72
2023-05-17T20:41:39.277Z,2.88
2023-05-17T20:48:43.254Z,2.97
2023-05-17T20:55:46.826Z,2.90
2023-05-17T21:02:49.310Z,3.30
2023-05-17T21:09:52.478Z,4.07
2023-05-17T21:16:55.791Z,2.80
2023-05-17T21:23:57.778Z,2.75
2023-05-17T21:30:59.832Z,2.28
2023-05-17T21:38:01.860Z,2.85
2023-05-17T21:45:04.191Z,2.75
2023-05-17T21:52:06.573Z,2.47
2023-05-17T21:59:08.590Z,2.83
2023-05-17T22:06:10.700Z,1.98
2023-05-17T22:13:12.716Z,2.13
2023-05-17T22:20:17.097Z,2.10
2023-05-17T22:27:19.254Z,2.60
2023-05-17T22:34:22.072Z,2.22
2023-05-17T22:41:24.056Z,2.22
2023-05-17T22:48:26.878Z,2.30
2023-05-17T22:55:29.141Z,2.08
2023-05-17T23:02:31.208Z,2.30
2023-05-17T23:09:33.903Z,1.73
2023-05-17T23:16:36.320Z,1.67
2023-05-17T23:23:38.310Z,2.40
2023-05-17T23:30:40.565Z,2.50
2023-05-17T23:37:42.652Z,3.10
2023-05-17T23:44:46.677Z,2.65
2023-05-17T23:51:48.947Z,2.63
2023-05-17T23:58:51.129Z,2.63
